sensor_id;sensor_type;location;lat;lon;timestamp;temperature;humidity
65231;DHT22;51813;40.666;16.602;2022-10-16T00:01:12;19.30;68.10
65231;DHT22;51813;40.666;16.602;2022-10-16T00:03:39;19.30;68.10
65231;DHT22;51813;40.666;16.602;2022-10-16T00:06:06;19.30;68.10
65231;DHT22;51813;40.666;16.602;2022-10-16T00:08:32;19.30;68.10
65231;DHT22;51813;40.666;16.602;2022-10-16T00:11:03;19.30;68.10
65231;DHT22;51813;40.666;16.602;2022-10-16T00:13:31;19.30;68.00
65231;DHT22;51813;40.666;16.602;2022-10-16T00:15:57;19.30;67.90
65231;DHT22;51813;40.666;16.602;2022-10-16T00:18:24;19.30;67.90
65231;DHT22;51813;40.666;16.602;2022-10-16T00:20:50;19.30;68.00
65231;DHT22;51813;40.666;16.602;2022-10-16T00:23:16;19.30;68.10
65231;DHT22;51813;40.666;16.602;2022-10-16T00:25:41;19.30;68.10
65231;DHT22;51813;40.666;16.602;2022-10-16T00:28:07;19.30;68.20
65231;DHT22;51813;40.666;16.602;2022-10-16T00:30:33;19.30;68.10
65231;DHT22;51813;40.666;16.602;2022-10-16T00:32:58;19.30;68.20
65231;DHT22;51813;40.666;16.602;2022-10-16T00:35:24;19.30;68.20
65231;DHT22;51813;40.666;16.602;2022-10-16T00:37:49;19.30;68.10
65231;DHT22;51813;40.666;16.602;2022-10-16T00:40:16;19.30;68.10
65231;DHT22;51813;40.666;16.602;2022-10-16T00:42:42;19.30;67.90
65231;DHT22;51813;40.666;16.602;2022-10-16T00:45:09;19.30;68.00
65231;DHT22;51813;40.666;16.602;2022-10-16T00:47:42;19.30;68.00
65231;DHT22;51813;40.666;16.602;2022-10-16T00:52:37;19.30;68.00
65231;DHT22;51813;40.666;16.602;2022-10-16T00:55:06;19.30;68.10
65231;DHT22;51813;40.666;16.602;2022-10-16T00:57:32;19.30;68.10
65231;DHT22;51813;40.666;16.602;2022-10-16T00:59:58;19.30;68.10
65231;DHT22;51813;40.666;16.602;2022-10-16T01:02:24;19.30;68.10
65231;DHT22;51813;40.666;16.602;2022-10-16T01:04:51;19.20;68.00
65231;DHT22;51813;40.666;16.602;2022-10-16T01:13:09;19.30;68.60
65231;DHT22;51813;40.666;16.602;2022-10-16T01:15:48;19.30;67.90
65231;DHT22;51813;40.666;16.602;2022-10-16T01:18:44;19.30;67.90
65231;DHT22;51813;40.666;16.602;2022-10-16T01:21:13;19.20;67.90
65231;DHT22;51813;40.666;16.602;2022-10-16T01:29:15;19.30;68.00
65231;DHT22;51813;40.666;16.602;2022-10-16T01:31:46;19.20;68.00
65231;DHT22;51813;40.666;16.602;2022-10-16T01:34:18;19.20;67.90
65231;DHT22;51813;40.666;16.602;2022-10-16T01:36:52;19.20;67.90
65231;DHT22;51813;40.666;16.602;2022-10-16T01:39:21;19.30;67.80
65231;DHT22;51813;40.666;16.602;2022-10-16T01:42:08;19.30;67.80
65231;DHT22;51813;40.666;16.602;2022-10-16T01:44:36;19.30;67.80
65231;DHT22;51813;40.666;16.602;2022-10-16T01:47:04;19.20;67.90
65231;DHT22;51813;40.666;16.602;2022-10-16T01:49:34;19.20;67.90
65231;DHT22;51813;40.666;16.602;2022-10-16T01:52:04;19.20;67.90
65231;DHT22;51813;40.666;16.602;2022-10-16T01:54:32;19.20;68.00
65231;DHT22;51813;40.666;16.602;2022-10-16T01:57:00;19.20;67.90
65231;DHT22;51813;40.666;16.602;2022-10-16T01:59:28;19.20;68.00
65231;DHT22;51813;40.666;16.602;2022-10-16T02:01:59;19.20;67.90
65231;DHT22;51813;40.666;16.602;2022-10-16T02:04:34;19.20;67.90
65231;DHT22;51813;40.666;16.602;2022-10-16T02:07:01;19.20;67.70
65231;DHT22;51813;40.666;16.602;2022-10-16T02:09:27;19.30;67.70
65231;DHT22;51813;40.666;16.602;2022-10-16T02:11:55;19.20;67.70
65231;DHT22;51813;40.666;16.602;2022-10-16T02:14:22;19.20;67.80
65231;DHT22;51813;40.666;16.602;2022-10-16T02:16:50;19.20;67.70
65231;DHT22;51813;40.666;16.602;2022-10-16T02:19:17;19.20;67.70
65231;DHT22;51813;40.666;16.602;2022-10-16T02:21:53;19.20;67.80
65231;DHT22;51813;40.666;16.602;2022-10-16T02:32:34;19.20;67.90
65231;DHT22;51813;40.666;16.602;2022-10-16T02:35:02;19.20;67.70
65231;DHT22;51813;40.666;16.602;2022-10-16T02:37:28;19.20;67.60
65231;DHT22;51813;40.666;16.602;2022-10-16T02:39:56;19.20;67.70
65231;DHT22;51813;40.666;16.602;2022-10-16T02:42:28;19.20;67.70
65231;DHT22;51813;40.666;16.602;2022-10-16T02:44:54;19.20;67.80
65231;DHT22;51813;40.666;16.602;2022-10-16T02:47:20;19.20;67.80
65231;DHT22;51813;40.666;16.602;2022-10-16T02:49:46;19.20;67.80
65231;DHT22;51813;40.666;16.602;2022-10-16T02:52:11;19.20;67.80
65231;DHT22;51813;40.666;16.602;2022-10-16T02:54:37;19.20;67.80
65231;DHT22;51813;40.666;16.602;2022-10-16T02:57:03;19.20;67.80
65231;DHT22;51813;40.666;16.602;2022-10-16T02:59:28;19.20;67.80
65231;DHT22;51813;40.666;16.602;2022-10-16T03:01:54;19.20;67.70
65231;DHT22;51813;40.666;16.602;2022-10-16T03:04:19;19.20;67.60
65231;DHT22;51813;40.666;16.602;2022-10-16T03:06:45;19.20;67.60
65231;DHT22;51813;40.666;16.602;2022-10-16T03:09:11;19.20;67.70
65231;DHT22;51813;40.666;16.602;2022-10-16T03:11:36;19.20;67.80
65231;DHT22;51813;40.666;16.602;2022-10-16T03:14:02;19.20;67.80
65231;DHT22;51813;40.666;16.602;2022-10-16T03:16:28;19.20;67.80
65231;DHT22;51813;40.666;16.602;2022-10-16T03:18:53;19.20;67.70
65231;DHT22;51813;40.666;16.602;2022-10-16T03:21:19;19.20;67.80
65231;DHT22;51813;40.666;16.602;2022-10-16T03:23:45;19.20;67.80
65231;DHT22;51813;40.666;16.602;2022-10-16T03:26:10;19.20;67.80
65231;DHT22;51813;40.666;16.602;2022-10-16T03:28:36;19.20;67.70
65231;DHT22;51813;40.666;16.602;2022-10-16T03:31:02;19.20;67.60
65231;DHT22;51813;40.666;16.602;2022-10-16T03:33:27;19.20;67.50
65231;DHT22;51813;40.666;16.602;2022-10-16T03:35:54;19.20;67.60
65231;DHT22;51813;40.666;16.602;2022-10-16T03:38:20;19.20;67.70
65231;DHT22;51813;40.666;16.602;2022-10-16T03:40:46;19.20;67.70
65231;DHT22;51813;40.666;16.602;2022-10-16T03:43:12;19.20;67.70
65231;DHT22;51813;40.666;16.602;2022-10-16T03:45:38;19.20;67.70
65231;DHT22;51813;40.666;16.602;2022-10-16T03:48:03;19.20;67.70
65231;DHT22;51813;40.666;16.602;2022-10-16T03:50:29;19.20;67.70
65231;DHT22;51813;40.666;16.602;2022-10-16T03:52:55;19.20;67.70
65231;DHT22;51813;40.666;16.602;2022-10-16T03:55:21;19.10;67.70
65231;DHT22;51813;40.666;16.602;2022-10-16T03:57:46;19.20;67.80
65231;DHT22;51813;40.666;16.602;2022-10-16T04:00:12;19.20;67.60
65231;DHT22;51813;40.666;16.602;2022-10-16T04:02:38;19.20;67.50
65231;DHT22;51813;40.666;16.602;2022-10-16T04:05:05;19.20;67.60
65231;DHT22;51813;40.666;16.602;2022-10-16T04:07:30;19.20;67.60
65231;DHT22;51813;40.666;16.602;2022-10-16T04:09:56;19.20;67.60
65231;DHT22;51813;40.666;16.602;2022-10-16T04:12:24;19.20;67.60
65231;DHT22;51813;40.666;16.602;2022-10-16T04:14:50;19.20;67.70
65231;DHT22;51813;40.666;16.602;2022-10-16T04:17:16;19.10;67.60
65231;DHT22;51813;40.666;16.602;2022-10-16T04:19:41;19.10;67.60
65231;DHT22;51813;40.666;16.602;2022-10-16T04:22:07;19.20;67.70
65231;DHT22;51813;40.666;16.602;2022-10-16T04:24:33;19.20;67.70
65231;DHT22;51813;40.666;16.602;2022-10-16T04:26:59;19.20;67.50
65231;DHT22;51813;40.666;16.602;2022-10-16T04:29:24;19.20;67.40
65231;DHT22;51813;40.666;16.602;2022-10-16T04:31:50;19.20;67.40
65231;DHT22;51813;40.666;16.602;2022-10-16T04:34:16;19.20;67.50
65231;DHT22;51813;40.666;16.602;2022-10-16T04:36:42;19.10;67.40
65231;DHT22;51813;40.666;16.602;2022-10-16T04:39:07;19.10;67.50
65231;DHT22;51813;40.666;16.602;2022-10-16T04:41:33;19.10;67.50
65231;DHT22;51813;40.666;16.602;2022-10-16T04:43:59;19.10;67.50
65231;DHT22;51813;40.666;16.602;2022-10-16T04:46:24;19.10;67.50
65231;DHT22;51813;40.666;16.602;2022-10-16T04:48:50;19.10;67.50
65231;DHT22;51813;40.666;16.602;2022-10-16T04:51:16;19.10;67.50
65231;DHT22;51813;40.666;16.602;2022-10-16T04:53:42;19.10;67.50
65231;DHT22;51813;40.666;16.602;2022-10-16T04:56:07;19.20;67.30
65231;DHT22;51813;40.666;16.602;2022-10-16T04:58:33;19.20;67.30
65231;DHT22;51813;40.666;16.602;2022-10-16T05:00:59;19.20;67.40
65231;DHT22;51813;40.666;16.602;2022-10-16T05:03:24;19.10;67.50
65231;DHT22;51813;40.666;16.602;2022-10-16T05:05:50;19.10;67.60
65231;DHT22;51813;40.666;16.602;2022-10-16T05:08:16;19.10;67.70
65231;DHT22;51813;40.666;16.602;2022-10-16T05:10:43;19.10;67.70
65231;DHT22;51813;40.666;16.602;2022-10-16T05:13:09;19.10;67.70
65231;DHT22;51813;40.666;16.602;2022-10-16T05:15:36;19.10;67.70
65231;DHT22;51813;40.666;16.602;2022-10-16T05:18:01;19.10;67.70
65231;DHT22;51813;40.666;16.602;2022-10-16T05:20:27;19.10;67.60
65231;DHT22;51813;40.666;16.602;2022-10-16T05:22:53;19.20;67.60
65231;DHT22;51813;40.666;16.602;2022-10-16T05:25:18;19.20;67.50
65231;DHT22;51813;40.666;16.602;2022-10-16T05:27:48;19.20;67.50
65231;DHT22;51813;40.666;16.602;2022-10-16T05:30:14;19.10;67.60
65231;DHT22;51813;40.666;16.602;2022-10-16T05:32:40;19.10;67.70
65231;DHT22;51813;40.666;16.602;2022-10-16T05:35:06;19.10;67.70
65231;DHT22;51813;40.666;16.602;2022-10-16T05:37:32;19.10;67.70
65231;DHT22;51813;40.666;16.602;2022-10-16T05:39:58;19.10;67.80
65231;DHT22;51813;40.666;16.602;2022-10-16T05:42:24;19.10;67.80
65231;DHT22;51813;40.666;16.602;2022-10-16T05:44:49;19.10;67.80
65231;DHT22;51813;40.666;16.602;2022-10-16T05:47:15;19.10;67.90
65231;DHT22;51813;40.666;16.602;2022-10-16T05:49:41;19.10;67.90
65231;DHT22;51813;40.666;16.602;2022-10-16T05:52:06;19.20;67.70
65231;DHT22;51813;40.666;16.602;2022-10-16T05:54:32;19.20;67.70
65231;DHT22;51813;40.666;16.602;2022-10-16T05:56:58;19.20;67.80
65231;DHT22;51813;40.666;16.602;2022-10-16T05:59:23;19.10;67.80
65231;DHT22;51813;40.666;16.602;2022-10-16T06:01:49;19.10;67.90
65231;DHT22;51813;40.666;16.602;2022-10-16T06:04:15;19.20;67.90
65231;DHT22;51813;40.666;16.602;2022-10-16T06:06:40;19.10;67.90
65231;DHT22;51813;40.666;16.602;2022-10-16T06:09:06;19.10;68.00
65231;DHT22;51813;40.666;16.602;2022-10-16T06:11:32;19.10;68.70
65231;DHT22;51813;40.666;16.602;2022-10-16T06:14:00;19.10;68.00
65231;DHT22;51813;40.666;16.602;2022-10-16T06:16:33;19.10;68.00
65231;DHT22;51813;40.666;16.602;2022-10-16T06:19:00;19.20;68.00
65231;DHT22;51813;40.666;16.602;2022-10-16T06:21:27;19.20;67.80
65231;DHT22;51813;40.666;16.602;2022-10-16T06:23:55;19.20;67.90
65231;DHT22;51813;40.666;16.602;2022-10-16T06:26:22;19.10;67.90
65231;DHT22;51813;40.666;16.602;2022-10-16T06:28:49;19.20;68.00
65231;DHT22;51813;40.666;16.602;2022-10-16T06:31:15;19.10;68.00
65231;DHT22;51813;40.666;16.602;2022-10-16T06:33:42;19.10;68.00
65231;DHT22;51813;40.666;16.602;2022-10-16T06:36:13;19.10;68.10
65231;DHT22;51813;40.666;16.602;2022-10-16T06:38:40;19.10;68.10
65231;DHT22;51813;40.666;16.602;2022-10-16T06:41:07;19.10;68.10
65231;DHT22;51813;40.666;16.602;2022-10-16T06:43:33;19.20;68.20
65231;DHT22;51813;40.666;16.602;2022-10-16T06:46:03;19.20;68.20
65231;DHT22;51813;40.666;16.602;2022-10-16T06:48:29;19.20;68.00
65231;DHT22;51813;40.666;16.602;2022-10-16T06:50:59;19.20;67.90
65231;DHT22;51813;40.666;16.602;2022-10-16T06:53:27;19.20;67.90
65231;DHT22;51813;40.666;16.602;2022-10-16T06:55:52;19.20;68.10
65231;DHT22;51813;40.666;16.602;2022-10-16T06:58:18;19.20;68.10
65231;DHT22;51813;40.666;16.602;2022-10-16T07:00:44;19.10;68.00
65231;DHT22;51813;40.666;16.602;2022-10-16T07:03:10;19.10;68.00
65231;DHT22;51813;40.666;16.602;2022-10-16T07:05:39;19.10;68.10
65231;DHT22;51813;40.666;16.602;2022-10-16T07:08:06;19.10;68.00
65231;DHT22;51813;40.666;16.602;2022-10-16T07:10:32;19.20;68.00
65231;DHT22;51813;40.666;16.602;2022-10-16T07:12:58;19.10;67.90
65231;DHT22;51813;40.666;16.602;2022-10-16T07:15:24;19.20;67.80
65231;DHT22;51813;40.666;16.602;2022-10-16T07:17:50;19.20;67.70
65231;DHT22;51813;40.666;16.602;2022-10-16T07:20:16;19.20;67.60
65231;DHT22;51813;40.666;16.602;2022-10-16T07:22:42;19.20;67.60
65231;DHT22;51813;40.666;16.602;2022-10-16T07:25:08;19.20;67.60
65231;DHT22;51813;40.666;16.602;2022-10-16T07:27:34;19.20;67.70
65231;DHT22;51813;40.666;16.602;2022-10-16T07:29:59;19.20;67.60
65231;DHT22;51813;40.666;16.602;2022-10-16T07:32:25;19.20;67.60
65231;DHT22;51813;40.666;16.602;2022-10-16T07:34:51;19.20;67.60
65231;DHT22;51813;40.666;16.602;2022-10-16T07:37:17;19.20;67.60
65231;DHT22;51813;40.666;16.602;2022-10-16T07:39:43;19.20;67.60
65231;DHT22;51813;40.666;16.602;2022-10-16T07:42:09;19.20;67.50
65231;DHT22;51813;40.666;16.602;2022-10-16T07:44:34;19.20;67.40
65231;DHT22;51813;40.666;16.602;2022-10-16T07:47:00;19.20;67.30
65231;DHT22;51813;40.666;16.602;2022-10-16T07:49:25;19.20;67.10
65231;DHT22;51813;40.666;16.602;2022-10-16T07:51:51;19.20;67.20
65231;DHT22;51813;40.666;16.602;2022-10-16T07:54:17;19.20;67.20
65231;DHT22;51813;40.666;16.602;2022-10-16T07:56:43;19.20;67.20
65231;DHT22;51813;40.666;16.602;2022-10-16T07:59:08;19.20;67.20
65231;DHT22;51813;40.666;16.602;2022-10-16T08:01:34;19.20;67.20
65231;DHT22;51813;40.666;16.602;2022-10-16T08:04:00;19.20;67.20
65231;DHT22;51813;40.666;16.602;2022-10-16T08:06:25;19.20;67.20
65231;DHT22;51813;40.666;16.602;2022-10-16T08:08:51;19.20;67.20
65231;DHT22;51813;40.666;16.602;2022-10-16T08:11:17;19.20;67.00
65231;DHT22;51813;40.666;16.602;2022-10-16T08:13:43;19.20;66.90
65231;DHT22;51813;40.666;16.602;2022-10-16T08:16:09;19.30;66.90
65231;DHT22;51813;40.666;16.602;2022-10-16T08:18:39;19.30;66.80
65231;DHT22;51813;40.666;16.602;2022-10-16T08:21:06;19.20;66.80
65231;DHT22;51813;40.666;16.602;2022-10-16T08:23:33;19.20;66.90
65231;DHT22;51813;40.666;16.602;2022-10-16T08:26:05;19.20;66.90
65231;DHT22;51813;40.666;16.602;2022-10-16T08:28:31;19.20;67.00
65231;DHT22;51813;40.666;16.602;2022-10-16T08:31:09;19.20;67.00
65231;DHT22;51813;40.666;16.602;2022-10-16T08:33:35;19.20;67.00
65231;DHT22;51813;40.666;16.602;2022-10-16T08:36:02;19.20;67.00
65231;DHT22;51813;40.666;16.602;2022-10-16T08:38:28;19.20;67.00
65231;DHT22;51813;40.666;16.602;2022-10-16T08:41:02;19.30;66.90
65231;DHT22;51813;40.666;16.602;2022-10-16T08:48:58;19.30;66.60
65231;DHT22;51813;40.666;16.602;2022-10-16T08:51:26;19.30;66.50
65231;DHT22;51813;40.666;16.602;2022-10-16T08:53:57;19.30;66.50
65231;DHT22;51813;40.666;16.602;2022-10-16T08:56:24;19.30;66.30
65231;DHT22;51813;40.666;16.602;2022-10-16T08:58:51;19.30;66.20
65231;DHT22;51813;40.666;16.602;2022-10-16T09:01:19;19.30;66.20
65231;DHT22;51813;40.666;16.602;2022-10-16T09:18:11;19.30;65.40
65231;DHT22;51813;40.666;16.602;2022-10-16T09:20:55;19.30;65.50
65231;DHT22;51813;40.666;16.602;2022-10-16T09:23:27;19.30;65.40
65231;DHT22;51813;40.666;16.602;2022-10-16T09:25:54;19.30;65.20
65231;DHT22;51813;40.666;16.602;2022-10-16T09:28:21;19.30;65.30
65231;DHT22;51813;40.666;16.602;2022-10-16T09:30:47;19.30;65.10
65231;DHT22;51813;40.666;16.602;2022-10-16T09:33:21;19.30;65.80
65231;DHT22;51813;40.666;16.602;2022-10-16T09:35:56;19.30;65.30
65231;DHT22;51813;40.666;16.602;2022-10-16T09:38:29;19.30;65.10
65231;DHT22;51813;40.666;16.602;2022-10-16T09:41:21;19.30;64.90
65231;DHT22;51813;40.666;16.602;2022-10-16T09:43:52;19.40;64.90
65231;DHT22;51813;40.666;16.602;2022-10-16T09:48:49;19.40;65.00
65231;DHT22;51813;40.666;16.602;2022-10-16T09:53:47;19.30;65.90
65231;DHT22;51813;40.666;16.602;2022-10-16T09:56:22;19.30;65.00
65231;DHT22;51813;40.666;16.602;2022-10-16T09:58:53;19.30;65.00
65231;DHT22;51813;40.666;16.602;2022-10-16T10:01:20;19.30;65.00
65231;DHT22;51813;40.666;16.602;2022-10-16T10:03:46;19.30;65.00
65231;DHT22;51813;40.666;16.602;2022-10-16T10:06:17;19.40;65.00
65231;DHT22;51813;40.666;16.602;2022-10-16T10:08:53;19.40;64.60
65231;DHT22;51813;40.666;16.602;2022-10-16T10:11:49;19.40;64.70
65231;DHT22;51813;40.666;16.602;2022-10-16T10:16:44;19.40;64.70
65231;DHT22;51813;40.666;16.602;2022-10-16T10:19:22;19.40;64.80
65231;DHT22;51813;40.666;16.602;2022-10-16T10:21:48;19.40;64.80
65231;DHT22;51813;40.666;16.602;2022-10-16T10:24:17;19.30;64.80
65231;DHT22;51813;40.666;16.602;2022-10-16T10:27:10;19.40;64.90
65231;DHT22;51813;40.666;16.602;2022-10-16T10:29:57;19.40;65.00
65231;DHT22;51813;40.666;16.602;2022-10-16T10:32:38;19.40;65.00
65231;DHT22;51813;40.666;16.602;2022-10-16T10:38:04;19.50;64.50
65231;DHT22;51813;40.666;16.602;2022-10-16T10:41:03;19.40;64.40
65231;DHT22;51813;40.666;16.602;2022-10-16T10:46:56;19.40;64.70
65231;DHT22;51813;40.666;16.602;2022-10-16T10:55:37;19.40;64.70
65231;DHT22;51813;40.666;16.602;2022-10-16T11:07:04;19.60;65.20
65231;DHT22;51813;40.666;16.602;2022-10-16T11:09:47;19.50;65.20
65231;DHT22;51813;40.666;16.602;2022-10-16T11:12:23;19.50;65.60
65231;DHT22;51813;40.666;16.602;2022-10-16T11:18:24;19.50;65.30
65231;DHT22;51813;40.666;16.602;2022-10-16T11:21:04;19.50;65.40
65231;DHT22;51813;40.666;16.602;2022-10-16T11:26:17;19.50;64.80
65231;DHT22;51813;40.666;16.602;2022-10-16T11:28:54;19.50;64.40
65231;DHT22;51813;40.666;16.602;2022-10-16T11:31:40;19.50;63.90
65231;DHT22;51813;40.666;16.602;2022-10-16T11:34:28;19.50;63.60
65231;DHT22;51813;40.666;16.602;2022-10-16T11:37:20;19.50;63.50
65231;DHT22;51813;40.666;16.602;2022-10-16T11:39:47;19.50;63.30
65231;DHT22;51813;40.666;16.602;2022-10-16T11:42:37;19.50;63.70
65231;DHT22;51813;40.666;16.602;2022-10-16T11:47:57;19.50;64.00
65231;DHT22;51813;40.666;16.602;2022-10-16T11:50:39;19.50;64.20
65231;DHT22;51813;40.666;16.602;2022-10-16T11:53:16;19.40;64.20
65231;DHT22;51813;40.666;16.602;2022-10-16T11:55:45;19.50;63.90
65231;DHT22;51813;40.666;16.602;2022-10-16T12:00:50;19.60;63.90
65231;DHT22;51813;40.666;16.602;2022-10-16T12:03:28;19.50;63.60
65231;DHT22;51813;40.666;16.602;2022-10-16T12:08:43;19.50;64.40
65231;DHT22;51813;40.666;16.602;2022-10-16T12:16:50;19.50;64.40
65231;DHT22;51813;40.666;16.602;2022-10-16T12:19:17;19.50;64.40
65231;DHT22;51813;40.666;16.602;2022-10-16T12:21:44;19.50;64.50
65231;DHT22;51813;40.666;16.602;2022-10-16T12:27:00;19.60;64.60
65231;DHT22;51813;40.666;16.602;2022-10-16T12:32:02;19.60;64.80
65231;DHT22;51813;40.666;16.602;2022-10-16T12:34:43;19.60;65.30
65231;DHT22;51813;40.666;16.602;2022-10-16T12:37:24;19.60;65.90
65231;DHT22;51813;40.666;16.602;2022-10-16T12:39:53;19.60;66.10
65231;DHT22;51813;40.666;16.602;2022-10-16T12:44:55;19.60;66.00
65231;DHT22;51813;40.666;16.602;2022-10-16T12:49:56;19.50;65.70
65231;DHT22;51813;40.666;16.602;2022-10-16T12:52:36;19.60;65.90
65231;DHT22;51813;40.666;16.602;2022-10-16T12:55:04;19.60;65.40
65231;DHT22;51813;40.666;16.602;2022-10-16T13:00:45;19.60;65.30
65231;DHT22;51813;40.666;16.602;2022-10-16T13:03:52;19.60;65.20
65231;DHT22;51813;40.666;16.602;2022-10-16T13:06:36;19.60;65.30
65231;DHT22;51813;40.666;16.602;2022-10-16T13:09:35;19.60;65.10
65231;DHT22;51813;40.666;16.602;2022-10-16T13:28:13;19.60;63.80
65231;DHT22;51813;40.666;16.602;2022-10-16T13:30:44;19.60;64.20
65231;DHT22;51813;40.666;16.602;2022-10-16T13:33:38;19.60;64.70
65231;DHT22;51813;40.666;16.602;2022-10-16T13:36:05;19.60;64.80
65231;DHT22;51813;40.666;16.602;2022-10-16T13:38:33;19.60;64.70
65231;DHT22;51813;40.666;16.602;2022-10-16T13:41:01;19.60;64.60
65231;DHT22;51813;40.666;16.602;2022-10-16T13:43:35;19.60;64.50
65231;DHT22;51813;40.666;16.602;2022-10-16T13:46:07;19.60;63.80
65231;DHT22;51813;40.666;16.602;2022-10-16T13:48:34;19.60;63.70
65231;DHT22;51813;40.666;16.602;2022-10-16T13:51:12;19.70;63.20
65231;DHT22;51813;40.666;16.602;2022-10-16T13:53:38;19.60;63.40
65231;DHT22;51813;40.666;16.602;2022-10-16T13:56:07;19.60;63.50
65231;DHT22;51813;40.666;16.602;2022-10-16T13:58:33;19.60;63.40
65231;DHT22;51813;40.666;16.602;2022-10-16T14:01:46;19.60;63.80
65231;DHT22;51813;40.666;16.602;2022-10-16T14:03:47;19.60;63.90
65231;DHT22;51813;40.666;16.602;2022-10-16T14:06:17;19.60;63.90
65231;DHT22;51813;40.666;16.602;2022-10-16T14:08:46;19.60;64.00
65231;DHT22;51813;40.666;16.602;2022-10-16T14:11:20;19.60;63.80
65231;DHT22;51813;40.666;16.602;2022-10-16T14:13:47;19.60;63.60
65231;DHT22;51813;40.666;16.602;2022-10-16T14:16:27;19.60;63.60
65231;DHT22;51813;40.666;16.602;2022-10-16T14:19:04;19.60;63.50
65231;DHT22;51813;40.666;16.602;2022-10-16T14:21:33;19.70;63.50
65231;DHT22;51813;40.666;16.602;2022-10-16T14:24:11;19.60;63.30
65231;DHT22;51813;40.666;16.602;2022-10-16T14:26:42;19.60;63.40
65231;DHT22;51813;40.666;16.602;2022-10-16T14:29:18;19.60;63.60
65231;DHT22;51813;40.666;16.602;2022-10-16T14:32:05;19.60;63.70
65231;DHT22;51813;40.666;16.602;2022-10-16T14:34:36;19.60;63.80
65231;DHT22;51813;40.666;16.602;2022-10-16T14:37:16;19.60;63.80
65231;DHT22;51813;40.666;16.602;2022-10-16T14:39:50;19.60;63.70
65231;DHT22;51813;40.666;16.602;2022-10-16T14:42:18;19.60;63.50
65231;DHT22;51813;40.666;16.602;2022-10-16T14:44:46;19.70;63.00
65231;DHT22;51813;40.666;16.602;2022-10-16T14:47:17;19.70;63.30
65231;DHT22;51813;40.666;16.602;2022-10-16T14:49:47;19.70;63.30
65231;DHT22;51813;40.666;16.602;2022-10-16T14:52:14;19.60;63.60
65231;DHT22;51813;40.666;16.602;2022-10-16T14:54:40;19.60;63.60
65231;DHT22;51813;40.666;16.602;2022-10-16T14:57:20;19.60;63.70
65231;DHT22;51813;40.666;16.602;2022-10-16T14:59:48;19.60;63.80
65231;DHT22;51813;40.666;16.602;2022-10-16T15:02:43;19.60;63.80
65231;DHT22;51813;40.666;16.602;2022-10-16T15:05:16;19.60;63.90
65231;DHT22;51813;40.666;16.602;2022-10-16T15:07:42;19.60;63.80
65231;DHT22;51813;40.666;16.602;2022-10-16T15:10:08;19.70;63.90
65231;DHT22;51813;40.666;16.602;2022-10-16T15:12:34;19.70;63.70
65231;DHT22;51813;40.666;16.602;2022-10-16T15:15:00;19.70;63.80
65231;DHT22;51813;40.666;16.602;2022-10-16T15:17:26;19.70;63.90
65231;DHT22;51813;40.666;16.602;2022-10-16T15:19:51;19.70;64.10
65231;DHT22;51813;40.666;16.602;2022-10-16T15:22:17;19.70;64.30
65231;DHT22;51813;40.666;16.602;2022-10-16T15:24:43;19.60;64.40
65231;DHT22;51813;40.666;16.602;2022-10-16T15:27:09;19.70;64.60
65231;DHT22;51813;40.666;16.602;2022-10-16T15:29:35;19.60;64.70
65231;DHT22;51813;40.666;16.602;2022-10-16T15:32:00;19.60;64.70
65231;DHT22;51813;40.666;16.602;2022-10-16T15:34:26;19.60;64.90
65231;DHT22;51813;40.666;16.602;2022-10-16T15:36:52;19.70;65.00
65231;DHT22;51813;40.666;16.602;2022-10-16T15:39:19;19.70;65.00
65231;DHT22;51813;40.666;16.602;2022-10-16T15:41:46;19.70;64.90
65231;DHT22;51813;40.666;16.602;2022-10-16T15:44:19;19.70;65.00
65231;DHT22;51813;40.666;16.602;2022-10-16T15:46:45;19.70;65.00
65231;DHT22;51813;40.666;16.602;2022-10-16T15:49:11;19.70;65.30
65231;DHT22;51813;40.666;16.602;2022-10-16T15:51:39;19.70;65.40
65231;DHT22;51813;40.666;16.602;2022-10-16T15:54:05;19.70;65.50
65231;DHT22;51813;40.666;16.602;2022-10-16T15:56:30;19.70;65.60
65231;DHT22;51813;40.666;16.602;2022-10-16T15:58:59;19.70;65.60
65231;DHT22;51813;40.666;16.602;2022-10-16T16:01:25;19.60;65.70
65231;DHT22;51813;40.666;16.602;2022-10-16T16:03:55;19.70;65.70
65231;DHT22;51813;40.666;16.602;2022-10-16T16:06:21;19.70;65.50
65231;DHT22;51813;40.666;16.602;2022-10-16T16:08:49;19.80;65.40
65231;DHT22;51813;40.666;16.602;2022-10-16T16:11:16;19.80;65.60
65231;DHT22;51813;40.666;16.602;2022-10-16T16:13:42;19.70;65.60
65231;DHT22;51813;40.666;16.602;2022-10-16T16:16:11;19.70;65.80
65231;DHT22;51813;40.666;16.602;2022-10-16T16:18:37;19.70;65.80
65231;DHT22;51813;40.666;16.602;2022-10-16T16:21:04;19.70;65.90
65231;DHT22;51813;40.666;16.602;2022-10-16T16:23:30;19.70;65.90
65231;DHT22;51813;40.666;16.602;2022-10-16T16:26:09;19.70;66.00
65231;DHT22;51813;40.666;16.602;2022-10-16T16:28:36;19.70;66.10
65231;DHT22;51813;40.666;16.602;2022-10-16T16:31:03;19.70;66.10
65231;DHT22;51813;40.666;16.602;2022-10-16T16:33:29;19.70;65.90
65231;DHT22;51813;40.666;16.602;2022-10-16T16:36:04;19.70;66.00
65231;DHT22;51813;40.666;16.602;2022-10-16T16:38:32;19.70;66.00
65231;DHT22;51813;40.666;16.602;2022-10-16T16:40:58;19.70;66.10
65231;DHT22;51813;40.666;16.602;2022-10-16T16:43:27;19.70;66.10
65231;DHT22;51813;40.666;16.602;2022-10-16T16:45:54;19.70;66.20
65231;DHT22;51813;40.666;16.602;2022-10-16T16:48:22;19.70;66.30
65231;DHT22;51813;40.666;16.602;2022-10-16T16:50:48;19.60;66.20
65231;DHT22;51813;40.666;16.602;2022-10-16T16:53:14;19.70;66.30
65231;DHT22;51813;40.666;16.602;2022-10-16T16:55:40;19.60;66.40
65231;DHT22;51813;40.666;16.602;2022-10-16T16:58:05;19.60;66.40
65231;DHT22;51813;40.666;16.602;2022-10-16T17:00:31;19.70;66.30
65231;DHT22;51813;40.666;16.602;2022-10-16T17:02:57;19.70;66.30
65231;DHT22;51813;40.666;16.602;2022-10-16T17:05:23;19.70;66.40
65231;DHT22;51813;40.666;16.602;2022-10-16T17:07:49;19.70;66.60
65231;DHT22;51813;40.666;16.602;2022-10-16T17:10:14;19.60;66.60
65231;DHT22;51813;40.666;16.602;2022-10-16T17:12:40;19.60;66.70
65231;DHT22;51813;40.666;16.602;2022-10-16T17:15:06;19.60;66.80
65231;DHT22;51813;40.666;16.602;2022-10-16T17:17:32;19.60;66.90
65231;DHT22;51813;40.666;16.602;2022-10-16T17:19:58;19.60;66.90
65231;DHT22;51813;40.666;16.602;2022-10-16T17:22:23;19.60;66.90
65231;DHT22;51813;40.666;16.602;2022-10-16T17:24:49;19.60;67.00
65231;DHT22;51813;40.666;16.602;2022-10-16T17:27:17;19.60;66.80